Terminal Aerodrome Forecast
Issued by NWS

Home | Current Version | Previous Version | Text Only | Print | Product List | Glossary On
Versions: 1 2 3 4 5 6 7 8 9 10 11 12 13 14 15 16 17 18 19 20
873
FTPA31 PHFO 200538
TAFHJR
TAF
PHJR 200538Z 2006/2106 36003KT P6SM FEW035
     FM202000 19007KT P6SM SCT035
     FM210500 05003KT P6SM FEW035=

USA.gov is the U.S. government's official web portal to all federal, state and local government web resources and services.